createdAt,value
2023-01-30T00:00:36.240Z,21.60
2023-01-30T00:03:02.915Z,21.83
2023-01-30T00:05:29.392Z,21.90
2023-01-30T00:07:55.989Z,21.00
2023-01-30T00:10:24.601Z,24.08
2023-01-30T00:12:52.428Z,24.77
2023-01-30T00:15:18.933Z,25.35
2023-01-30T00:17:45.470Z,24.63
2023-01-30T00:20:14.136Z,25.45
2023-01-30T00:22:46.625Z,25.88
2023-01-30T00:25:19.166Z,24.98
2023-01-30T00:27:45.761Z,25.58
2023-01-30T00:30:12.505Z,23.88
2023-01-30T00:32:39.994Z,23.65
2023-01-30T00:35:07.136Z,23.23
2023-01-30T00:37:33.951Z,22.50
2023-01-30T00:40:00.518Z,22.63
2023-01-30T00:42:46.350Z,22.02
2023-01-30T00:45:32.926Z,22.85
2023-01-30T00:48:00.138Z,24.48
2023-01-30T00:50:42.232Z,23.65
2023-01-30T00:53:12.643Z,21.60
2023-01-30T00:55:39.324Z,23.38
2023-01-30T00:58:06.031Z,22.27
2023-01-30T01:00:33.019Z,20.85
2023-01-30T01:02:59.548Z,24.50
2023-01-30T01:05:26.133Z,22.33
2023-01-30T01:07:53.443Z,23.77
2023-01-30T01:10:20.941Z,22.65
2023-01-30T01:12:49.225Z,24.13
2023-01-30T01:15:16.037Z,21.05
2023-01-30T01:17:42.873Z,23.27
2023-01-30T01:20:10.516Z,23.15
2023-01-30T01:22:37.162Z,23.73
2023-01-30T01:25:04.089Z,22.70
2023-01-30T01:27:30.621Z,22.73
2023-01-30T01:29:57.141Z,21.88
2023-01-30T01:32:23.811Z,23.45
2023-01-30T01:34:50.339Z,22.20
2023-01-30T01:37:16.909Z,23.05
2023-01-30T01:40:02.067Z,22.35
2023-01-30T01:42:34.885Z,22.27
2023-01-30T01:45:13.367Z,22.98
2023-01-30T01:48:25.285Z,22.02
2023-01-30T01:50:58.361Z,18.13
2023-01-30T01:53:32.390Z,22.05
2023-01-30T01:55:59.528Z,22.98
2023-01-30T01:58:36.138Z,23.13
2023-01-30T02:01:02.919Z,21.77
2023-01-30T02:03:33.678Z,21.90
2023-01-30T02:06:03.075Z,22.92
2023-01-30T02:08:39.595Z,21.52
2023-01-30T02:11:31.773Z,23.33
2023-01-30T02:14:00.508Z,20.02
2023-01-30T02:16:27.107Z,20.83
2023-01-30T02:18:53.857Z,21.83
2023-01-30T02:21:56.485Z,22.13
2023-01-30T02:24:48.762Z,22.15
2023-01-30T02:27:25.045Z,22.40
2023-01-30T02:30:10.614Z,22.27
2023-01-30T02:32:54.915Z,20.13
2023-01-30T02:35:38.141Z,23.33
2023-01-30T02:38:20.103Z,22.65
2023-01-30T02:40:58.242Z,21.63
2023-01-30T02:43:46.521Z,23.08
2023-01-30T02:46:22.200Z,22.63
2023-01-30T02:49:01.031Z,23.08
2023-01-30T02:51:33.081Z,22.15
2023-01-30T02:54:00.195Z,20.85
2023-01-30T02:56:27.040Z,21.42
2023-01-30T02:58:59.790Z,21.52
2023-01-30T03:01:57.611Z,22.50
2023-01-30T03:04:46.218Z,21.02
2023-01-30T03:07:18.483Z,21.27
2023-01-30T03:09:51.737Z,23.25
2023-01-30T03:12:36.814Z,22.33
2023-01-30T03:15:04.428Z,23.10
2023-01-30T03:17:32.427Z,23.05
2023-01-30T03:20:00.243Z,23.17
2023-01-30T03:22:26.975Z,22.65
2023-01-30T03:24:55.508Z,23.92
2023-01-30T03:27:22.821Z,23.23
2023-01-30T03:29:49.481Z,22.60
2023-01-30T03:36:38.747Z,20.55
2023-01-30T03:39:05.574Z,22.83
2023-01-30T03:41:32.147Z,22.40
2023-01-30T03:44:00.805Z,21.48
2023-01-30T03:46:27.431Z,22.50
2023-01-30T03:48:54.023Z,22.70
2023-01-30T03:51:21.518Z,22.85
2023-01-30T03:53:48.185Z,23.80
2023-01-30T03:56:14.815Z,23.10
2023-01-30T03:58:41.488Z,21.65
2023-01-30T04:01:20.108Z,21.70
2023-01-30T04:03:47.005Z,23.92
2023-01-30T04:06:14.722Z,24.08
2023-01-30T04:08:41.993Z,22.55
2023-01-30T04:11:14.312Z,24.58
2023-01-30T04:13:40.926Z,24.35
2023-01-30T04:16:25.268Z,21.73
2023-01-30T04:19:10.267Z,21.83
2023-01-30T04:21:37.527Z,22.85
2023-01-30T04:24:04.593Z,22.67
2023-01-30T04:26:31.155Z,24.40
2023-01-30T04:28:57.900Z,21.60
2023-01-30T04:31:25.132Z,21.77
2023-01-30T04:33:58.934Z,23.02
2023-01-30T04:36:25.625Z,21.90
2023-01-30T04:38:53.154Z,22.10
2023-01-30T04:41:20.887Z,20.90
2023-01-30T04:43:47.919Z,23.05
2023-01-30T04:46:22.846Z,21.00
2023-01-30T04:48:49.536Z,18.58
2023-01-30T04:51:16.090Z,18.67
2023-01-30T04:53:42.910Z,21.85
2023-01-30T04:56:09.557Z,21.35
2023-01-30T04:58:36.198Z,19.52
2023-01-30T05:01:19.203Z,21.55
2023-01-30T05:03:45.796Z,20.67
2023-01-30T05:06:12.254Z,21.20
2023-01-30T05:08:38.825Z,19.38
2023-01-30T05:11:06.163Z,17.27
2023-01-30T05:13:33.067Z,20.20
2023-01-30T05:15:59.763Z,19.77
2023-01-30T05:18:26.263Z,20.33
2023-01-30T05:20:52.769Z,19.67
2023-01-30T05:23:19.329Z,19.75
2023-01-30T05:25:45.839Z,19.83
2023-01-30T05:28:12.377Z,19.95
2023-01-30T05:30:38.973Z,20.05
2023-01-30T05:33:05.830Z,19.98
2023-01-30T05:35:32.345Z,17.77
2023-01-30T05:37:59.549Z,18.60
2023-01-30T05:40:27.939Z,17.88
2023-01-30T05:42:54.470Z,18.27
2023-01-30T05:45:21.016Z,17.33
2023-01-30T05:47:51.468Z,18.58
2023-01-30T05:50:18.347Z,18.17
2023-01-30T05:52:44.930Z,21.10
2023-01-30T05:55:11.477Z,21.00
2023-01-30T05:57:38.037Z,19.58
2023-01-30T06:00:05.985Z,21.27
2023-01-30T06:02:39.509Z,20.60
2023-01-30T06:05:06.368Z,19.83
2023-01-30T06:07:32.893Z,20.58
2023-01-30T06:09:59.433Z,21.00
2023-01-30T06:12:27.166Z,22.40
2023-01-30T06:14:53.658Z,21.05
2023-01-30T06:17:20.369Z,22.17
2023-01-30T06:19:46.858Z,20.83
2023-01-30T06:22:13.478Z,21.95
2023-01-30T06:24:39.962Z,21.50
2023-01-30T06:27:06.553Z,20.13
2023-01-30T06:29:33.147Z,21.85
2023-01-30T06:31:59.890Z,20.55
2023-01-30T06:34:26.446Z,21.08
2023-01-30T06:36:53.116Z,21.27
2023-01-30T06:39:20.088Z,20.70
2023-01-30T06:41:46.594Z,21.17
2023-01-30T06:44:13.085Z,22.17
2023-01-30T06:46:39.606Z,19.52
2023-01-30T06:49:06.111Z,22.10
2023-01-30T06:51:32.591Z,21.13
2023-01-30T06:53:59.116Z,21.60
2023-01-30T06:56:25.619Z,21.20
2023-01-30T06:58:52.228Z,21.70
2023-01-30T07:01:19.466Z,21.25
2023-01-30T07:03:46.064Z,23.20
2023-01-30T07:06:12.591Z,22.08
2023-01-30T07:08:40.832Z,23.40
2023-01-30T07:11:07.351Z,23.13
2023-01-30T07:13:33.868Z,21.75
2023-01-30T07:16:00.361Z,24.05
2023-01-30T07:18:26.873Z,23.83
2023-01-30T07:20:53.520Z,23.05
2023-01-30T07:23:20.239Z,23.50
2023-01-30T07:25:46.772Z,25.40
2023-01-30T07:28:13.502Z,24.50
2023-01-30T07:30:40.314Z,24.90
2023-01-30T07:33:06.939Z,24.58
2023-01-30T07:35:35.264Z,24.02
2023-01-30T07:38:01.808Z,24.92
2023-01-30T07:40:29.563Z,23.55
2023-01-30T07:43:00.648Z,25.20
2023-01-30T07:45:29.085Z,23.00
2023-01-30T07:47:55.621Z,24.52
2023-01-30T07:50:22.298Z,23.02
2023-01-30T07:52:48.813Z,24.48
2023-01-30T07:55:15.355Z,23.83
2023-01-30T07:57:41.957Z,24.40
2023-01-30T08:00:10.725Z,23.70
2023-01-30T08:02:37.267Z,23.27
2023-01-30T08:05:06.121Z,24.52
2023-01-30T08:07:33.393Z,21.95
2023-01-30T08:10:00.001Z,23.63
2023-01-30T08:12:26.628Z,25.30
2023-01-30T08:14:53.289Z,24.25
2023-01-30T08:17:19.913Z,23.45
2023-01-30T08:19:47.263Z,23.08
2023-01-30T08:22:14.199Z,23.55
2023-01-30T08:24:40.672Z,22.52
2023-01-30T08:27:07.239Z,22.50
2023-01-30T08:29:33.759Z,22.38
2023-01-30T08:32:00.883Z,20.95
2023-01-30T08:34:27.796Z,20.85
2023-01-30T08:36:54.315Z,18.73
2023-01-30T08:39:20.795Z,19.02
2023-01-30T08:41:47.342Z,17.70
2023-01-30T08:44:14.095Z,17.33
2023-01-30T08:46:40.666Z,14.50
2023-01-30T08:49:07.225Z,15.30
2023-01-30T08:51:33.895Z,13.20
2023-01-30T08:54:00.479Z,12.55
2023-01-30T08:56:26.972Z,11.40
2023-01-30T08:58:53.524Z,11.68
2023-01-30T09:01:20.112Z,9.25
2023-01-30T09:03:47.201Z,10.05
2023-01-30T09:06:13.802Z,10.20
2023-01-30T09:08:40.317Z,9.10
2023-01-30T09:11:06.944Z,8.52
2023-01-30T09:13:34.710Z,8.68
2023-01-30T09:16:01.288Z,7.75
2023-01-30T09:18:27.829Z,8.32
2023-01-30T09:21:02.648Z,5.90
2023-01-30T09:23:29.296Z,5.93
2023-01-30T09:25:55.771Z,6.00
2023-01-30T09:28:22.522Z,5.55
2023-01-30T09:30:49.202Z,4.75
2023-01-30T09:33:20.101Z,4.57
2023-01-30T09:35:49.867Z,4.53
2023-01-30T09:38:17.106Z,4.35
2023-01-30T09:41:00.272Z,4.38
2023-01-30T09:43:51.882Z,3.30
2023-01-30T09:48:56.660Z,4.07
2023-01-30T09:51:32.893Z,4.07
2023-01-30T09:54:05.121Z,4.00
2023-01-30T09:56:31.627Z,3.28
2023-01-30T09:59:00.156Z,3.33
2023-01-30T10:01:55.948Z,2.85
2023-01-30T10:04:29.315Z,3.05
2023-01-30T10:07:13.273Z,2.92
2023-01-30T10:09:55.175Z,2.90
2023-01-30T10:12:47.615Z,2.58
2023-01-30T10:15:25.669Z,4.00
2023-01-30T10:18:07.511Z,3.00
2023-01-30T10:21:03.141Z,3.17
2023-01-30T10:23:51.782Z,3.70
2023-01-30T10:26:20.707Z,3.58
2023-01-30T10:29:07.342Z,2.83
2023-01-30T10:31:42.405Z,3.05
2023-01-30T10:34:21.608Z,2.97
2023-01-30T10:37:00.411Z,3.08
2023-01-30T10:39:36.897Z,3.30
2023-01-30T10:42:19.673Z,3.63
2023-01-30T10:44:47.594Z,3.15
2023-01-30T10:47:46.297Z,3.10
2023-01-30T10:50:15.821Z,2.85
2023-01-30T10:52:53.044Z,2.85
2023-01-30T10:55:38.523Z,3.60
2023-01-30T10:58:26.793Z,2.92
2023-01-30T11:01:01.356Z,3.33
2023-01-30T11:03:42.376Z,3.00
2023-01-30T11:06:13.955Z,3.60
2023-01-30T11:08:40.539Z,3.03
2023-01-30T11:11:26.177Z,3.30
2023-01-30T11:14:05.112Z,2.90
2023-01-30T11:16:33.678Z,3.53
2023-01-30T11:19:21.923Z,2.83
2023-01-30T11:22:02.105Z,3.03
2023-01-30T11:24:39.231Z,3.03
2023-01-30T11:27:15.717Z,3.58
2023-01-30T11:29:42.305Z,2.95
2023-01-30T11:32:14.744Z,3.35
2023-01-30T11:34:43.439Z,3.42
2023-01-30T11:37:30.781Z,2.78
2023-01-30T11:39:57.497Z,2.60
2023-01-30T11:42:31.637Z,3.83
2023-01-30T11:45:15.713Z,2.70
2023-01-30T11:48:05.447Z,2.85
2023-01-30T11:50:46.847Z,2.55
2023-01-30T11:53:21.644Z,3.00
2023-01-30T11:56:01.888Z,2.58
2023-01-30T11:58:31.760Z,3.50
2023-01-30T12:00:58.460Z,2.53
2023-01-30T12:03:25.745Z,2.60
2023-01-30T12:05:52.611Z,2.33
2023-01-30T12:08:39.410Z,2.40
2023-01-30T12:11:26.395Z,2.05
2023-01-30T12:13:57.587Z,2.92
2023-01-30T12:19:17.261Z,2.92
2023-01-30T12:21:52.476Z,2.83
2023-01-30T12:24:26.828Z,2.50
2023-01-30T12:27:01.953Z,1.92
2023-01-30T12:29:36.435Z,2.40
2023-01-30T12:32:18.861Z,2.38
2023-01-30T12:34:46.423Z,3.60
2023-01-30T12:37:41.097Z,2.80
2023-01-30T12:40:18.224Z,2.20
2023-01-30T12:43:15.167Z,3.92
2023-01-30T12:45:50.947Z,2.53
2023-01-30T12:48:44.155Z,3.35
2023-01-30T12:51:40.328Z,2.80
2023-01-30T12:54:43.818Z,3.42
2023-01-30T12:57:40.077Z,2.80
2023-01-30T13:00:41.661Z,2.38
2023-01-30T13:06:18.674Z,3.35
2023-01-30T13:08:57.729Z,3.22
2023-01-30T13:11:49.228Z,2.80
2023-01-30T13:17:03.717Z,2.70
2023-01-30T13:19:55.253Z,3.22
2023-01-30T13:22:32.410Z,3.20
2023-01-30T13:25:35.841Z,2.83
2023-01-30T13:28:20.370Z,2.92
2023-01-30T13:30:48.813Z,3.40
2023-01-30T13:33:27.247Z,2.83
2023-01-30T13:35:57.265Z,3.20
2023-01-30T13:38:26.956Z,3.13
2023-01-30T13:40:56.537Z,3.28
2023-01-30T13:43:35.242Z,3.53
2023-01-30T13:46:07.378Z,3.58
2023-01-30T13:48:45.331Z,2.95
2023-01-30T13:51:26.713Z,3.58
2023-01-30T13:56:40.733Z,3.72
2023-01-30T13:59:39.699Z,2.58
2023-01-30T14:02:07.110Z,2.95
2023-01-30T14:04:36.774Z,3.40
2023-01-30T14:07:12.211Z,3.58
2023-01-30T14:09:44.348Z,3.25
2023-01-30T14:12:19.822Z,3.38
2023-01-30T14:15:10.896Z,3.10
2023-01-30T14:17:37.459Z,2.88
2023-01-30T14:20:17.377Z,3.38
2023-01-30T14:22:52.254Z,3.58
2023-01-30T14:25:27.746Z,4.30
2023-01-30T14:28:05.075Z,3.20
2023-01-30T14:30:31.663Z,3.05
2023-01-30T14:33:00.173Z,3.45
2023-01-30T14:35:33.047Z,3.03
2023-01-30T14:38:21.508Z,2.75
2023-01-30T14:40:49.545Z,3.53
2023-01-30T14:43:24.926Z,3.38
2023-01-30T14:45:52.778Z,2.83
2023-01-30T14:48:28.251Z,2.85
2023-01-30T14:51:25.337Z,3.33
2023-01-30T14:54:02.255Z,3.40
2023-01-30T14:56:38.394Z,3.10
2023-01-30T14:59:16.156Z,4.20
2023-01-30T15:02:14.979Z,3.67
2023-01-30T15:04:53.537Z,3.33
2023-01-30T15:07:27.822Z,3.83
2023-01-30T15:10:06.899Z,2.80
2023-01-30T15:13:03.980Z,3.78
2023-01-30T15:15:39.004Z,4.18
2023-01-30T15:18:23.571Z,4.57
2023-01-30T15:21:09.144Z,3.55
2023-01-30T15:23:54.182Z,2.92
2023-01-30T15:26:42.661Z,2.83
2023-01-30T15:29:24.153Z,3.95
2023-01-30T15:32:02.648Z,3.63
2023-01-30T15:34:30.708Z,3.72
2023-01-30T15:36:57.822Z,3.17
2023-01-30T15:39:26.804Z,3.72
2023-01-30T15:41:57.188Z,2.80
2023-01-30T15:44:37.899Z,3.00
2023-01-30T15:47:12.762Z,3.28
2023-01-30T15:49:50.989Z,3.60
2023-01-30T15:52:19.822Z,3.60
2023-01-30T15:54:58.607Z,3.58
2023-01-30T15:57:29.368Z,3.70
2023-01-30T15:59:56.964Z,4.22
2023-01-30T16:02:36.361Z,4.13
2023-01-30T16:05:15.341Z,3.00
2023-01-30T16:07:42.460Z,4.40
2023-01-30T16:10:17.276Z,3.25
2023-01-30T16:12:44.542Z,3.55
2023-01-30T16:15:30.990Z,4.53
2023-01-30T16:18:05.637Z,2.95
2023-01-30T16:20:43.689Z,4.05
2023-01-30T16:23:24.557Z,2.92
2023-01-30T16:25:54.909Z,3.30
2023-01-30T16:28:22.833Z,3.92
2023-01-30T16:30:57.703Z,3.53
2023-01-30T16:33:24.307Z,4.18
2023-01-30T16:35:50.887Z,4.05
2023-01-30T16:38:44.367Z,4.35
2023-01-30T16:41:34.934Z,3.70
2023-01-30T16:44:17.569Z,4.97
2023-01-30T16:46:45.825Z,3.05
2023-01-30T16:49:45.758Z,3.63
2023-01-30T16:52:17.589Z,3.53
2023-01-30T16:54:52.457Z,3.20
2023-01-30T16:57:27.613Z,3.72
2023-01-30T16:59:54.940Z,4.30
2023-01-30T17:02:31.491Z,4.30
2023-01-30T17:05:30.859Z,3.53
2023-01-30T17:07:58.184Z,4.22
2023-01-30T17:10:40.072Z,3.17
2023-01-30T17:13:29.999Z,3.60
2023-01-30T17:16:22.117Z,4.30
2023-01-30T17:18:49.720Z,3.33
2023-01-30T17:21:16.481Z,3.67
2023-01-30T17:23:52.112Z,3.15
2023-01-30T17:26:19.098Z,3.95
2023-01-30T17:28:45.626Z,4.65
2023-01-30T17:31:13.579Z,4.15
2023-01-30T17:33:40.330Z,4.20
2023-01-30T17:36:13.494Z,3.55
2023-01-30T17:38:40.099Z,3.83
2023-01-30T17:41:09.758Z,3.85
2023-01-30T17:43:36.234Z,5.18
2023-01-30T17:46:02.814Z,4.32
2023-01-30T17:48:29.374Z,4.32
2023-01-30T17:50:55.942Z,4.47
2023-01-30T17:53:22.470Z,4.10
2023-01-30T17:55:48.966Z,4.70
2023-01-30T17:58:17.308Z,4.03
2023-01-30T18:00:43.805Z,4.82
2023-01-30T18:03:10.674Z,4.57
2023-01-30T18:05:37.180Z,4.75
2023-01-30T18:08:03.690Z,4.45
2023-01-30T18:10:30.191Z,4.45
2023-01-30T18:12:56.762Z,3.80
2023-01-30T18:15:23.419Z,4.45
2023-01-30T18:17:51.072Z,4.45
2023-01-30T18:20:19.856Z,5.00
2023-01-30T18:22:46.712Z,4.25
2023-01-30T18:25:13.689Z,4.15
2023-01-30T18:27:44.173Z,4.03
2023-01-30T18:30:17.414Z,4.10
2023-01-30T18:32:52.987Z,3.58
2023-01-30T18:35:21.469Z,4.05
2023-01-30T18:37:47.957Z,5.22
2023-01-30T18:40:15.119Z,3.85
2023-01-30T18:42:41.844Z,4.53
2023-01-30T18:45:08.765Z,4.45
2023-01-30T18:47:35.380Z,4.03
2023-01-30T18:50:02.040Z,3.63
2023-01-30T18:52:28.569Z,3.95
2023-01-30T18:54:55.013Z,4.53
2023-01-30T18:57:21.479Z,4.45
2023-01-30T18:59:47.952Z,4.15
2023-01-30T19:02:14.549Z,4.80
2023-01-30T19:04:41.137Z,4.38
2023-01-30T19:07:07.731Z,3.50
2023-01-30T19:09:34.811Z,4.25
2023-01-30T19:12:19.675Z,4.05
2023-01-30T19:14:46.164Z,5.18
2023-01-30T19:17:14.174Z,4.40
2023-01-30T19:19:42.453Z,4.80
2023-01-30T19:22:08.955Z,4.35
2023-01-30T19:24:35.430Z,4.18
2023-01-30T19:27:07.387Z,5.18
2023-01-30T19:29:33.857Z,3.80
2023-01-30T19:32:01.461Z,3.78
2023-01-30T19:34:28.178Z,4.10
2023-01-30T19:36:56.066Z,3.70
2023-01-30T19:39:22.667Z,4.38
2023-01-30T19:41:49.325Z,4.13
2023-01-30T19:44:15.804Z,3.80
2023-01-30T19:46:43.008Z,3.40
2023-01-30T19:49:11.263Z,4.68
2023-01-30T19:51:37.986Z,4.60
2023-01-30T19:54:07.566Z,4.25
2023-01-30T19:56:34.396Z,4.68
2023-01-30T19:59:01.389Z,4.65
2023-01-30T20:01:30.469Z,4.22
2023-01-30T20:03:57.575Z,4.50
2023-01-30T20:06:26.581Z,4.10
2023-01-30T20:09:01.562Z,3.78
2023-01-30T20:11:29.003Z,3.67
2023-01-30T20:13:55.787Z,3.53
2023-01-30T20:16:25.336Z,4.97
2023-01-30T20:18:59.899Z,3.83
2023-01-30T20:21:27.835Z,4.38
2023-01-30T20:23:55.222Z,3.58
2023-01-30T20:26:24.853Z,3.75
2023-01-30T20:28:51.658Z,4.03
2023-01-30T20:31:20.564Z,3.85
2023-01-30T20:33:47.433Z,3.15
2023-01-30T20:36:16.574Z,4.82
2023-01-30T20:38:44.318Z,4.15
2023-01-30T20:41:25.150Z,3.95
2023-01-30T20:43:53.739Z,3.15
2023-01-30T20:46:25.406Z,4.10
2023-01-30T20:48:54.515Z,3.90
2023-01-30T20:51:23.671Z,3.70
2023-01-30T20:54:02.675Z,4.13
2023-01-30T20:56:35.430Z,4.75
2023-01-30T20:59:03.537Z,3.03
2023-01-30T21:01:30.461Z,3.70
2023-01-30T21:03:57.080Z,3.55
2023-01-30T21:06:42.554Z,3.97
2023-01-30T21:09:22.168Z,3.75
2023-01-30T21:11:49.539Z,3.80
2023-01-30T21:14:17.111Z,4.75
2023-01-30T21:16:43.838Z,3.78
2023-01-30T21:19:14.929Z,3.72
2023-01-30T21:24:12.710Z,3.30
2023-01-30T21:26:42.310Z,3.70
2023-01-30T21:29:08.987Z,4.55
2023-01-30T21:31:37.490Z,4.68
2023-01-30T21:34:04.569Z,4.40
2023-01-30T21:36:31.243Z,4.15
2023-01-30T21:39:16.292Z,5.28
2023-01-30T21:42:03.177Z,3.55
2023-01-30T21:44:32.168Z,3.75
2023-01-30T21:46:58.804Z,3.45
2023-01-30T21:49:26.141Z,4.18
2023-01-30T21:51:52.931Z,3.97
2023-01-30T21:54:20.323Z,4.53
2023-01-30T21:56:47.127Z,3.75
2023-01-30T21:59:13.860Z,3.50
2023-01-30T22:01:41.512Z,5.15
2023-01-30T22:04:10.368Z,4.85
2023-01-30T22:06:37.958Z,4.72
2023-01-30T22:09:05.773Z,4.45
2023-01-30T22:11:34.108Z,4.05
2023-01-30T22:14:00.589Z,5.10
2023-01-30T22:16:28.737Z,4.30
2023-01-30T22:18:57.893Z,4.88
2023-01-30T22:21:26.175Z,4.78
2023-01-30T22:23:53.877Z,4.30
2023-01-30T22:26:22.316Z,5.40
2023-01-30T22:28:53.371Z,5.82
2023-01-30T22:31:20.237Z,5.45
2023-01-30T22:33:48.926Z,4.68
2023-01-30T22:36:16.013Z,5.15
2023-01-30T22:38:43.621Z,4.70
2023-01-30T22:41:14.524Z,5.28
2023-01-30T22:43:50.242Z,4.78
2023-01-30T22:46:18.125Z,4.25
2023-01-30T22:48:45.426Z,5.15
2023-01-30T22:51:24.537Z,4.78
2023-01-30T22:53:53.220Z,5.03
2023-01-30T22:56:28.215Z,5.20
2023-01-30T22:58:55.366Z,5.35
2023-01-30T23:01:27.265Z,6.20
2023-01-30T23:03:56.864Z,4.80
2023-01-30T23:06:24.192Z,4.63
2023-01-30T23:08:51.390Z,5.38
2023-01-30T23:11:19.619Z,4.55
2023-01-30T23:13:48.508Z,4.78
2023-01-30T23:16:16.286Z,5.28
2023-01-30T23:18:55.245Z,4.32
2023-01-30T23:21:26.511Z,4.43
2023-01-30T23:23:54.686Z,5.38
2023-01-30T23:26:23.442Z,5.07
2023-01-30T23:28:50.254Z,5.60
2023-01-30T23:31:20.462Z,4.97
2023-01-30T23:33:47.341Z,4.83
2023-01-30T23:36:14.703Z,4.88
2023-01-30T23:38:41.672Z,4.55
2023-01-30T23:41:15.737Z,5.75
2023-01-30T23:43:44.227Z,5.43
2023-01-30T23:46:24.654Z,4.85
2023-01-30T23:48:53.862Z,5.05
2023-01-30T23:51:21.943Z,5.20
2023-01-30T23:53:49.290Z,4.82
2023-01-30T23:56:16.370Z,4.55
2023-01-30T23:58:44.573Z,4.43
